Time;durP1;ratioP1;P1;durP2;ratioP2;P2;SDS_P1;SDS_P2;PMS_P1;PMS_P2;Temp;Humidity;BMP_temperature;BMP_pressure;BME280_temperature;BME280_humidity;BME280_pressure;Samples;Min_cycle;Max_cycle;Signal;HPM_P1;HPM_P2
2021/05/04 00:00:55;;;;;;;3.85;1.70;;;;;;;6.26;54.02;100088.72;1787906;79;22063;-73
2021/05/04 00:03:22;;;;;;;3.52;1.98;;;;;;;6.23;54.05;100088.09;1791162;79;21140;-72
2021/05/04 00:05:50;;;;;;;3.45;2.20;;;;;;;6.22;53.93;100088.56;1804103;79;21498;-73
2021/05/04 00:08:17;;;;;;;3.62;2.00;;;;;;;6.24;53.93;100091.08;1791771;79;21626;-72
2021/05/04 00:10:45;;;;;;;3.08;1.85;;;;;;;6.20;53.94;100098.80;1730817;82;21117;-72
2021/05/04 00:13:14;;;;;;;3.10;2.00;;;;;;;6.21;53.73;100097.84;1707593;83;21145;-72
2021/05/04 00:15:41;;;;;;;2.95;1.50;;;;;;;6.22;53.61;100093.80;1728148;81;21219;-72
2021/05/04 00:18:08;;;;;;;2.70;1.80;;;;;;;6.25;53.52;100103.25;1730060;81;21178;-72
2021/05/04 00:20:36;;;;;;;2.70;1.95;;;;;;;6.24;53.53;100093.23;1724448;81;21152;-72
2021/05/04 00:23:04;;;;;;;2.58;1.72;;;;;;;6.24;53.53;100093.70;1728029;81;21152;-73
2021/05/04 00:25:32;;;;;;;5.15;1.72;;;;;;;6.22;53.66;100096.91;1753592;80;22825;-73
2021/05/04 00:27:59;;;;;;;3.65;2.05;;;;;;;6.20;53.71;100093.08;1745032;81;21068;-73
2021/05/04 00:30:27;;;;;;;4.47;2.20;;;;;;;6.18;53.74;100092.34;1748502;81;21651;-73
2021/05/04 00:32:55;;;;;;;4.70;1.90;;;;;;;6.15;53.86;100089.90;1752356;81;21148;-72
2021/05/04 00:35:22;;;;;;;3.52;1.77;;;;;;;6.12;53.88;100084.86;1740819;81;21024;-73
2021/05/04 00:37:50;;;;;;;3.08;1.52;;;;;;;6.11;54.03;100089.74;1758551;80;21836;-73
2021/05/04 00:40:17;;;;;;;2.10;1.40;;;;;;;6.09;54.17;100092.94;1757795;80;21220;-73
2021/05/04 00:42:45;;;;;;;3.22;1.60;;;;;;;6.05;54.25;100089.29;1741008;81;21448;-73
2021/05/04 00:45:14;;;;;;;3.27;1.65;;;;;;;6.04;54.30;100087.14;1747681;81;21730;-72
2021/05/04 00:47:42;;;;;;;3.52;1.70;;;;;;;6.03;54.38;100082.84;1764425;80;21173;-72
2021/05/04 00:50:11;;;;;;;2.50;1.80;;;;;;;6.01;54.43;100090.81;1755484;81;23034;-73
2021/05/04 00:52:39;;;;;;;3.30;1.92;;;;;;;5.99;54.53;100088.77;1754323;81;21215;-73
2021/05/04 00:55:07;;;;;;;2.33;1.50;;;;;;;5.98;54.59;100087.53;1729643;81;21416;-73
2021/05/04 00:57:34;;;;;;;2.67;1.70;;;;;;;5.96;54.71;100090.25;1748451;81;21132;-73
2021/05/04 01:00:04;;;;;;;4.42;1.82;;;;;;;5.93;54.78;100093.55;1741478;81;21614;-73
2021/05/04 01:02:32;;;;;;;3.10;1.47;;;;;;;5.89;54.92;100085.03;1711586;82;22069;-73
2021/05/04 01:05:01;;;;;;;2.20;1.55;;;;;;;5.87;55.09;100082.11;1736487;81;21600;-73
2021/05/04 01:07:29;;;;;;;2.20;1.40;;;;;;;5.84;55.13;100086.25;1730159;81;21078;-72
2021/05/04 01:09:56;;;;;;;2.70;1.75;;;;;;;5.82;55.29;100085.52;1729600;81;21211;-73
2021/05/04 01:12:24;;;;;;;3.25;1.80;;;;;;;5.80;55.34;100086.09;1748082;81;21111;-72
2021/05/04 01:14:51;;;;;;;3.42;1.80;;;;;;;5.78;55.42;100085.33;1746831;81;23365;-73
2021/05/04 01:17:19;;;;;;;2.95;1.80;;;;;;;5.74;55.48;100082.91;1716112;81;21100;-73
2021/05/04 01:19:46;;;;;;;3.10;2.12;;;;;;;5.71;55.63;100084.89;1750215;82;21488;-73
2021/05/04 01:22:14;;;;;;;3.77;2.40;;;;;;;5.66;55.73;100082.55;1750958;82;21116;-72
2021/05/04 01:24:41;;;;;;;4.45;2.47;;;;;;;5.64;55.80;100083.59;1739540;82;21124;-73
2021/05/04 01:27:09;;;;;;;3.92;2.47;;;;;;;5.64;56.04;100088.84;1734801;82;22031;-73
2021/05/04 01:29:37;;;;;;;2.65;1.80;;;;;;;5.63;55.98;100088.47;1733043;82;21635;-72
2021/05/04 01:32:06;;;;;;;3.27;2.20;;;;;;;5.61;56.06;100089.88;1720651;81;21131;-72
2021/05/04 01:34:34;;;;;;;2.85;1.85;;;;;;;5.58;56.15;100084.81;1740102;80;21113;-73
2021/05/04 01:37:03;;;;;;;2.52;1.72;;;;;;;5.57;56.26;100087.06;1753417;81;21587;-73
2021/05/04 01:39:47;;;;;;;2.58;1.57;;;;;;;5.54;56.30;100096.44;1760509;81;22059;-73
2021/05/04 01:42:16;;;;;;;3.17;1.72;;;;;;;5.52;56.35;100091.77;1737785;81;21113;-72
2021/05/04 01:44:43;;;;;;;3.92;1.72;;;;;;;5.52;56.47;100100.09;1750777;81;21120;-73
2021/05/04 01:47:11;;;;;;;2.90;1.80;;;;;;;5.46;56.54;100096.07;1750559;81;21069;-72
2021/05/04 01:49:40;;;;;;;2.77;2.17;;;;;;;5.43;56.63;100096.27;1744828;81;21064;-73
2021/05/04 01:52:09;;;;;;;4.33;2.25;;;;;;;5.40;56.76;100099.06;1751497;82;22063;-73
2021/05/04 01:54:37;;;;;;;5.50;2.40;;;;;;;5.35;56.86;100096.75;1738492;82;21151;-73
2021/05/04 01:57:05;;;;;;;5.55;2.12;;;;;;;5.31;56.95;100094.42;1740314;82;21414;-73
2021/05/04 01:59:34;;;;;;;3.35;2.00;;;;;;;5.30;57.10;100099.27;1751550;80;21149;-73
2021/05/04 02:02:01;;;;;;;3.52;2.08;;;;;;;5.23;57.21;100106.68;1758607;81;21554;-73
2021/05/04 02:04:32;;;;;;;3.08;2.10;;;;;;;5.18;57.36;100104.33;1746764;81;22152;-73
2021/05/04 02:07:02;;;;;;;2.65;1.80;;;;;;;5.14;57.56;100111.16;1764095;81;21140;-73
2021/05/04 02:09:30;;;;;;;3.65;1.85;;;;;;;5.10;57.72;100112.27;1736403;82;21508;-73
2021/05/04 02:11:58;;;;;;;5.80;1.87;;;;;;;5.04;57.89;100106.12;1736667;81;21072;-73
2021/05/04 02:14:25;;;;;;;4.75;1.80;;;;;;;4.99;58.07;100110.30;1742070;81;21548;-73
2021/05/04 02:16:53;;;;;;;3.42;1.75;;;;;;;4.94;58.27;100110.23;1735676;81;22070;-72
2021/05/04 02:19:20;;;;;;;3.45;1.95;;;;;;;4.88;58.46;100107.03;1735685;81;21563;-73
2021/05/04 02:21:48;;;;;;;2.42;1.80;;;;;;;4.82;58.69;100114.40;1728134;82;21166;-73
2021/05/04 02:24:15;;;;;;;3.52;2.22;;;;;;;4.78;58.84;100115.53;1739939;81;21559;-72
2021/05/04 02:26:44;;;;;;;5.20;2.30;;;;;;;4.74;59.02;100116.19;1751381;80;21125;-73
2021/05/04 02:29:11;;;;;;;3.55;2.22;;;;;;;4.70;59.22;100117.75;1759982;80;23396;-73
2021/05/04 02:31:39;;;;;;;3.25;2.42;;;;;;;4.67;59.38;100120.56;1741327;81;21085;-73
2021/05/04 02:34:07;;;;;;;3.75;2.20;;;;;;;4.63;59.54;100122.96;1714513;81;21181;-73
2021/05/04 02:36:35;;;;;;;3.25;2.17;;;;;;;4.62;59.71;100133.05;1767365;81;21121;-73
2021/05/04 02:39:06;;;;;;;3.02;1.87;;;;;;;4.56;59.86;100126.42;1745395;79;21145;-73
2021/05/04 02:41:36;;;;;;;3.08;2.02;;;;;;;4.53;60.23;100130.50;1736827;81;22063;-73
2021/05/04 02:44:05;;;;;;;2.77;2.00;;;;;;;4.47;60.39;100134.34;1747178;82;21120;-72
2021/05/04 02:46:34;;;;;;;2.35;1.85;;;;;;;4.45;60.57;100137.52;1748837;82;21151;-72
2021/05/04 02:49:02;;;;;;;4.92;2.05;;;;;;;4.43;60.76;100142.43;1766731;80;21668;-73
2021/05/04 02:51:29;;;;;;;4.53;2.10;;;;;;;4.41;60.94;100144.30;1742639;81;21108;-73
2021/05/04 02:53:57;;;;;;;2.92;1.92;;;;;;;4.36;61.09;100138.05;1744475;81;22116;-73
2021/05/04 02:56:25;;;;;;;4.45;2.10;;;;;;;4.35;61.35;100142.05;1734670;81;21140;-73
2021/05/04 02:58:53;;;;;;;3.47;1.95;;;;;;;4.30;61.47;100148.38;1761024;81;21636;-73
2021/05/04 03:01:20;;;;;;;3.22;2.00;;;;;;;4.30;61.72;100144.92;1757269;80;21057;-73
2021/05/04 03:03:48;;;;;;;3.40;2.00;;;;;;;4.31;61.90;100150.52;1742773;81;21368;-72
2021/05/04 03:06:15;;;;;;;3.50;2.17;;;;;;;4.32;62.10;100157.43;1762956;81;22509;-73
2021/05/04 03:08:44;;;;;;;3.80;2.30;;;;;;;4.32;62.24;100160.05;1758401;81;21211;-73
2021/05/04 03:11:11;;;;;;;5.78;2.20;;;;;;;4.34;62.45;100173.02;1752823;80;21057;-73
2021/05/04 03:13:38;;;;;;;5.97;2.75;;;;;;;4.35;62.60;100172.97;1762515;80;21117;-73
2021/05/04 03:16:06;;;;;;;5.47;2.50;;;;;;;4.37;62.69;100177.64;1738461;80;21115;-73
2021/05/04 03:18:33;;;;;;;3.58;2.45;;;;;;;4.40;62.75;100174.84;1756623;81;23366;-73
2021/05/04 03:21:02;;;;;;;4.50;2.67;;;;;;;4.44;62.94;100181.59;1765061;80;21184;-73
2021/05/04 03:23:29;;;;;;;3.58;2.35;;;;;;;4.48;62.93;100185.70;1761234;81;21167;-73
2021/05/04 03:25:57;;;;;;;2.55;2.02;;;;;;;4.52;62.95;100183.28;1756622;80;21041;-73
2021/05/04 03:28:24;;;;;;;2.20;2.00;;;;;;;4.56;62.94;100184.81;1757242;81;21069;-72
2021/05/04 03:30:52;;;;;;;6.00;2.37;;;;;;;4.64;62.86;100192.69;1763905;81;22512;-72
2021/05/04 03:33:19;;;;;;;4.75;2.60;;;;;;;4.69;62.88;100194.09;1750789;81;21532;-73
2021/05/04 03:35:47;;;;;;;3.42;2.65;;;;;;;4.74;62.95;100192.06;1758682;81;21070;-73
2021/05/04 03:38:14;;;;;;;3.98;2.52;;;;;;;4.80;62.84;100198.23;1747879;81;21624;-73
2021/05/04 03:40:42;;;;;;;4.53;2.52;;;;;;;4.86;62.84;100193.95;1753234;81;21400;-73
2021/05/04 03:43:09;;;;;;;3.02;2.02;;;;;;;4.94;62.73;100190.05;1742447;81;22070;-73
2021/05/04 03:45:37;;;;;;;4.45;2.27;;;;;;;5.00;62.72;100193.59;1733509;81;21124;-73
2021/05/04 03:48:06;;;;;;;4.22;2.58;;;;;;;5.05;62.56;100190.26;1725973;83;21124;-73
2021/05/04 03:50:33;;;;;;;3.30;1.80;;;;;;;5.11;62.40;100192.02;1721063;81;21166;-73
2021/05/04 03:53:01;;;;;;;4.87;2.75;;;;;;;5.19;62.23;100192.87;1708357;82;20910;-73
2021/05/04 03:55:28;;;;;;;3.52;2.22;;;;;;;5.26;61.98;100194.20;1758425;81;22123;-73
2021/05/04 03:57:56;;;;;;;4.42;2.55;;;;;;;5.33;61.84;100206.00;1719795;81;21132;-73
2021/05/04 04:00:23;;;;;;;3.25;2.20;;;;;;;5.40;61.63;100207.31;1733940;81;21572;-73
2021/05/04 04:02:52;;;;;;;4.53;2.60;;;;;;;5.46;61.27;100208.23;1687329;81;21068;-73
2021/05/04 04:05:20;;;;;;;4.00;2.30;;;;;;;5.55;61.22;100194.20;1732185;82;21167;-73
2021/05/04 04:07:47;;;;;;;3.80;2.30;;;;;;;5.62;61.05;100195.52;1753601;80;22129;-72
2021/05/04 04:10:14;;;;;;;3.72;2.20;;;;;;;5.68;60.87;100197.27;1726078;83;21453;-73
2021/05/04 04:12:43;;;;;;;4.12;2.30;;;;;;;5.75;60.57;100193.34;1751508;81;21150;-73
2021/05/04 04:15:11;;;;;;;4.30;2.70;;;;;;;5.84;60.64;100199.80;1738251;81;21087;-73
2021/05/04 04:17:40;;;;;;;3.10;2.27;;;;;;;5.90;60.23;100193.34;1733361;81;21353;-73
2021/05/04 04:20:08;;;;;;;5.15;2.40;;;;;;;5.97;60.29;100190.71;1755839;81;22172;-73
2021/05/04 04:22:35;;;;;;;3.30;2.35;;;;;;;6.07;60.28;100202.77;1757532;80;21073;-73
2021/05/04 04:25:04;;;;;;;3.30;2.50;;;;;;;6.17;60.25;100198.62;1728910;82;21154;-73
2021/05/04 04:27:31;;;;;;;3.35;2.30;;;;;;;6.23;59.71;100189.90;1763872;81;21109;-72
2021/05/04 04:29:59;;;;;;;4.58;2.75;;;;;;;6.28;59.17;100190.45;1756041;81;21062;-73
2021/05/04 04:32:27;;;;;;;3.77;2.22;;;;;;;6.32;59.23;100189.78;1749031;80;22057;-73
2021/05/04 04:34:55;;;;;;;5.58;2.55;;;;;;;6.39;59.15;100191.08;1763533;81;21144;-73
2021/05/04 04:37:22;;;;;;;3.75;2.70;;;;;;;6.45;58.93;100195.90;1738909;81;21164;-73
2021/05/04 04:39:50;;;;;;;5.30;2.55;;;;;;;6.53;58.58;100196.72;1758328;81;21419;-73
2021/05/04 04:42:17;;;;;;;7.92;2.70;;;;;;;6.58;58.54;100200.73;1736086;81;21165;-73
2021/05/04 04:44:45;;;;;;;3.45;2.47;;;;;;;6.63;58.54;100199.11;1753201;80;21561;-73
2021/05/04 04:47:13;;;;;;;3.87;2.80;;;;;;;6.73;58.68;100201.50;1740089;81;21192;-73
2021/05/04 04:49:42;;;;;;;4.55;2.70;;;;;;;6.80;58.39;100199.31;1736901;82;21069;-73
2021/05/04 04:52:09;;;;;;;4.47;2.70;;;;;;;6.87;58.44;100204.06;1721663;82;21119;-74
2021/05/04 04:54:36;;;;;;;6.20;2.70;;;;;;;6.96;58.36;100197.83;1731577;82;21404;-73
2021/05/04 04:57:04;;;;;;;3.80;2.60;;;;;;;7.03;58.37;100211.73;1737098;82;22515;-74
2021/05/04 04:59:33;;;;;;;4.65;2.90;;;;;;;7.11;57.94;100211.22;1728091;80;21153;-73
2021/05/04 05:02:00;;;;;;;3.98;2.80;;;;;;;7.14;57.42;100213.63;1704599;83;21165;-73
2021/05/04 05:04:28;;;;;;;4.53;2.80;;;;;;;7.15;57.51;100204.84;1741665;81;21485;-73
2021/05/04 05:06:56;;;;;;;4.42;3.00;;;;;;;7.19;57.75;100201.04;1740946;81;21557;-73
2021/05/04 05:09:25;;;;;;;5.28;3.08;;;;;;;7.25;57.59;100207.20;1719234;82;22496;-73
2021/05/04 05:11:52;;;;;;;5.22;2.80;;;;;;;7.28;57.40;100196.48;1724184;82;21184;-73
2021/05/04 05:14:20;;;;;;;4.05;2.80;;;;;;;7.34;57.72;100202.63;1712927;82;21130;-72
2021/05/04 05:16:47;;;;;;;4.45;2.80;;;;;;;7.40;57.42;100196.94;1708537;82;21754;-73
2021/05/04 05:19:15;;;;;;;5.67;3.10;;;;;;;7.46;57.25;100196.52;1751831;81;21145;-73
2021/05/04 05:21:44;;;;;;;3.92;2.60;;;;;;;7.53;56.78;100194.77;1729708;80;21152;-72
2021/05/04 05:24:12;;;;;;;3.92;2.80;;;;;;;7.55;56.93;100208.66;1740675;81;21145;-72
2021/05/04 05:26:40;;;;;;;2.85;2.55;;;;;;;7.58;56.87;100199.24;1714250;82;21096;-73
2021/05/04 05:29:08;;;;;;;5.42;3.22;;;;;;;7.64;56.89;100193.09;1744376;82;21232;-73
2021/05/04 05:31:36;;;;;;;5.40;3.10;;;;;;;7.72;56.73;100194.72;1741352;80;21169;-73
2021/05/04 05:34:04;;;;;;;5.40;3.40;;;;;;;7.84;56.69;100202.20;1723806;82;22509;-73
2021/05/04 05:36:31;;;;;;;4.83;3.27;;;;;;;7.93;56.23;100192.83;1743579;81;21082;-73
2021/05/04 05:38:59;;;;;;;4.12;2.83;;;;;;;7.97;56.44;100196.43;1719323;81;21133;-73
2021/05/04 05:41:26;;;;;;;5.03;3.35;;;;;;;8.05;56.18;100198.52;1735915;82;21136;-73
2021/05/04 05:43:55;;;;;;;8.05;3.30;;;;;;;8.11;56.03;100196.77;1727435;80;21049;-73
2021/05/04 05:46:22;;;;;;;5.33;3.40;;;;;;;8.15;55.94;100202.16;1744641;81;22566;-71
2021/05/04 05:48:51;;;;;;;4.37;2.95;;;;;;;8.18;55.22;100195.36;1729622;82;21528;-72
2021/05/04 05:51:18;;;;;;;5.40;2.90;;;;;;;8.22;55.36;100199.94;1721698;82;21085;-74
2021/05/04 05:53:46;;;;;;;4.50;3.22;;;;;;;8.28;55.39;100204.73;1744475;82;21751;-71
2021/05/04 05:56:13;;;;;;;4.33;3.15;;;;;;;8.32;54.45;100212.31;1747981;81;21231;-71
2021/05/04 05:58:41;;;;;;;6.10;3.22;;;;;;;8.34;54.50;100206.94;1729540;82;22011;-70
2021/05/04 06:01:09;;;;;;;3.47;2.72;;;;;;;8.35;54.57;100201.23;1733142;82;21675;-70
2021/05/04 06:03:37;;;;;;;4.97;2.90;;;;;;;8.43;54.28;100198.41;1740566;82;21089;-70
2021/05/04 06:06:05;;;;;;;4.22;3.12;;;;;;;8.47;53.88;100202.95;1716538;82;21140;-71
2021/05/04 06:08:33;;;;;;;3.65;2.80;;;;;;;8.49;54.39;100204.99;1714745;82;21152;-72
2021/05/04 06:11:01;;;;;;;3.77;2.50;;;;;;;8.58;54.28;100199.05;1744647;81;21891;-72
2021/05/04 06:13:29;;;;;;;3.42;2.90;;;;;;;8.70;53.62;100200.80;1717998;82;21069;-71
2021/05/04 06:15:56;;;;;;;3.05;2.75;;;;;;;8.79;53.39;100207.18;1728563;82;21108;-71
2021/05/04 06:18:23;;;;;;;3.92;3.22;;;;;;;8.82;53.19;100201.67;1732347;82;21136;-71
2021/05/04 06:20:51;;;;;;;5.45;3.45;;;;;;;8.88;53.35;100203.37;1750426;80;21369;-73
2021/05/04 06:23:18;;;;;;;3.45;2.95;;;;;;;9.00;53.05;100195.02;1704629;83;22028;-71
2021/05/04 06:25:45;;;;;;;4.50;2.92;;;;;;;9.14;53.24;100205.34;1739571;82;21123;-70
2021/05/04 06:28:15;;;;;;;5.22;2.98;;;;;;;9.29;52.96;100193.28;1740135;81;21148;-71
2021/05/04 06:30:42;;;;;;;3.75;2.45;;;;;;;9.39;52.30;100200.36;1746362;80;21087;-71
2021/05/04 06:33:12;;;;;;;4.10;2.90;;;;;;;9.48;52.37;100191.39;1714874;81;21492;-72
2021/05/04 06:35:42;;;;;;;5.85;3.20;;;;;;;9.53;52.16;100208.51;1691276;83;21499;-71
2021/05/04 06:38:15;;;;;;;5.55;3.33;;;;;;;9.48;50.37;100197.98;1728843;81;21140;-69
2021/05/04 06:40:46;;;;;;;3.75;2.98;;;;;;;9.36;50.89;100197.10;1728425;81;21163;-71
2021/05/04 06:43:13;;;;;;;4.15;3.42;;;;;;;9.34;50.73;100209.09;1746661;81;21481;-73
2021/05/04 06:45:41;;;;;;;4.20;2.85;;;;;;;9.42;50.83;100203.23;1740430;81;21061;-73
2021/05/04 06:48:09;;;;;;;3.62;2.95;;;;;;;9.54;51.50;100203.59;1754250;81;22114;-72
2021/05/04 06:50:37;;;;;;;6.50;3.40;;;;;;;9.66;50.73;100193.91;1732138;81;21103;-72
2021/05/04 06:53:04;;;;;;;4.85;3.00;;;;;;;9.68;50.25;100191.98;1749954;81;21129;-72
2021/05/04 06:55:32;;;;;;;4.75;2.50;;;;;;;9.71;50.12;100199.64;1740562;81;21054;-72
2021/05/04 06:58:00;;;;;;;4.67;2.80;;;;;;;9.78;50.39;100189.45;1730919;81;21509;-71
2021/05/04 07:00:29;;;;;;;4.20;2.77;;;;;;;9.94;50.40;100201.33;1721696;82;22065;-72
2021/05/04 07:02:57;;;;;;;3.58;2.90;;;;;;;10.11;49.61;100199.11;1732296;81;21432;-75
2021/05/04 07:05:24;;;;;;;3.77;2.67;;;;;;;10.21;48.36;100198.25;1744408;80;21144;-73
2021/05/04 07:07:51;;;;;;;3.62;2.60;;;;;;;10.27;47.22;100192.52;1741972;81;21123;-72
2021/05/04 07:10:19;;;;;;;3.22;2.60;;;;;;;10.17;46.66;100213.98;1740509;81;21311;-72
2021/05/04 07:12:46;;;;;;;3.85;2.70;;;;;;;10.08;47.29;100212.56;1720823;81;21904;-71
2021/05/04 07:15:14;;;;;;;4.40;2.52;;;;;;;10.11;47.92;100213.63;1732328;81;21161;-70
2021/05/04 07:17:43;;;;;;;3.27;2.75;;;;;;;10.17;47.08;100214.47;1753292;80;21184;-71
2021/05/04 07:20:12;;;;;;;3.17;2.22;;;;;;;10.24;47.08;100207.30;1751078;81;21068;-72
2021/05/04 07:22:39;;;;;;;2.92;2.62;;;;;;;10.31;45.88;100206.30;1716598;81;21508;-72
2021/05/04 07:25:09;;;;;;;4.20;2.70;;;;;;;10.31;45.51;100208.94;1733226;81;22495;-74
2021/05/04 07:27:37;;;;;;;3.58;2.50;;;;;;;10.27;46.40;100207.03;1728819;81;21127;-72
2021/05/04 07:30:06;;;;;;;3.75;2.50;;;;;;;10.26;45.60;100208.00;1749918;81;21100;-73
2021/05/04 07:32:34;;;;;;;4.12;2.45;;;;;;;10.28;46.18;100203.91;1747383;81;21133;-70
2021/05/04 07:35:02;;;;;;;3.22;2.08;;;;;;;10.31;46.38;100212.89;1748389;81;21342;-71
2021/05/04 07:37:29;;;;;;;3.62;2.47;;;;;;;10.30;45.62;100223.94;1741169;80;22971;-71
2021/05/04 07:39:57;;;;;;;3.10;2.00;;;;;;;10.30;46.79;100219.14;1727853;81;21100;-71
2021/05/04 07:42:24;;;;;;;2.72;2.08;;;;;;;10.35;46.72;100228.03;1708939;81;21172;-71
2021/05/04 07:44:51;;;;;;;3.83;2.70;;;;;;;10.40;47.39;100220.08;1721242;82;21040;-70
2021/05/04 07:47:19;;;;;;;2.95;2.05;;;;;;;10.49;47.56;100221.13;1733907;81;21107;-69
2021/05/04 07:49:48;;;;;;;3.90;2.50;;;;;;;10.54;46.03;100218.97;1731382;81;23049;-69
2021/05/04 07:52:15;;;;;;;4.12;2.30;;;;;;;10.53;45.19;100214.66;1724761;82;21164;-68
2021/05/04 07:54:45;;;;;;;3.92;2.00;;;;;;;10.50;45.70;100221.48;1731567;82;21108;-71
2021/05/04 07:57:13;;;;;;;3.62;2.45;;;;;;;10.48;45.96;100209.73;1730015;82;21148;-70
2021/05/04 07:59:40;;;;;;;3.12;2.10;;;;;;;10.49;46.33;100209.25;1727609;81;21061;-68
2021/05/04 08:02:08;;;;;;;3.00;2.40;;;;;;;10.50;46.16;100213.56;1751723;81;22138;-69
2021/05/04 08:04:36;;;;;;;3.55;2.40;;;;;;;10.50;45.62;100210.92;1705573;82;21846;-70
2021/05/04 08:07:08;;;;;;;3.62;2.22;;;;;;;10.49;45.98;100207.44;1723812;82;21157;-71
2021/05/04 08:09:34;;;;;;;3.55;2.27;;;;;;;10.49;45.93;100203.48;1717032;82;21155;-70
2021/05/04 08:12:03;;;;;;;3.72;2.25;;;;;;;10.51;46.21;100204.67;1710342;82;21133;-71
2021/05/04 08:14:33;;;;;;;3.35;2.00;;;;;;;10.54;45.55;100208.41;1722254;82;23571;-70
2021/05/04 08:17:04;;;;;;;3.55;2.20;;;;;;;10.54;44.50;100208.41;1721536;82;21391;-70
2021/05/04 08:19:32;;;;;;;2.90;2.08;;;;;;;10.52;44.59;100205.05;1723419;82;21156;-71
2021/05/04 08:22:00;;;;;;;3.72;2.25;;;;;;;10.45;44.96;100207.35;1722240;82;21191;-71
2021/05/04 08:24:27;;;;;;;3.22;2.00;;;;;;;10.44;44.85;100206.16;1716732;82;21512;-71
2021/05/04 08:26:55;;;;;;;6.40;2.30;;;;;;;10.44;44.75;100207.48;1716218;82;22068;-71
2021/05/04 08:29:22;;;;;;;4.95;1.90;;;;;;;10.41;44.53;100208.55;1720258;82;21203;-71
2021/05/04 08:31:49;;;;;;;5.30;2.83;;;;;;;10.38;45.70;100235.20;1732797;82;21151;-71
2021/05/04 08:34:20;;;;;;;5.97;2.05;;;;;;;10.31;47.59;100221.65;1738957;81;21210;-72
2021/05/04 08:36:51;;;;;;;3.33;1.95;;;;;;;10.23;50.33;100232.47;1721779;81;21200;-71
2021/05/04 08:39:19;;;;;;;3.80;2.80;;;;;;;10.15;49.58;100221.68;1746979;82;22073;-71
2021/05/04 08:41:47;;;;;;;3.15;2.30;;;;;;;10.14;50.57;100221.33;1745166;82;21212;-71
2021/05/04 08:44:16;;;;;;;3.85;2.70;;;;;;;10.19;50.16;100223.94;1766085;81;21120;-71
2021/05/04 08:46:45;;;;;;;3.83;2.15;;;;;;;10.23;48.18;100224.55;1760784;81;21203;-71
2021/05/04 08:49:16;;;;;;;2.80;2.20;;;;;;;10.24;47.13;100229.73;1759532;80;21461;-72
2021/05/04 08:51:48;;;;;;;2.83;2.02;;;;;;;10.27;47.16;100228.16;1749709;81;22500;-72
2021/05/04 08:54:17;;;;;;;6.30;3.20;;;;;;;10.37;47.29;100226.93;1736494;79;21215;-71
2021/05/04 08:56:44;;;;;;;3.77;2.72;;;;;;;10.49;47.71;100218.00;1714856;82;21134;-70
2021/05/04 08:59:12;;;;;;;2.42;1.90;;;;;;;10.62;46.59;100219.67;1759823;81;21153;-70
2021/05/04 09:01:39;;;;;;;4.22;2.08;;;;;;;10.67;45.58;100226.72;1765066;80;21179;-70
2021/05/04 09:04:30;;;;;;;2.95;2.25;;;;;;;10.67;45.70;100217.47;1759324;81;23012;-70
2021/05/04 09:07:03;;;;;;;5.25;2.30;;;;;;;10.71;46.01;100214.47;1739098;81;21198;-70
2021/05/04 09:09:34;;;;;;;5.20;2.30;;;;;;;10.73;45.32;100205.92;1699588;82;21437;-70
2021/05/04 09:12:09;;;;;;;4.37;2.72;;;;;;;10.72;46.18;100210.86;1758689;79;21156;-73
2021/05/04 09:14:47;;;;;;;3.62;2.00;;;;;;;10.71;46.58;100210.50;1746975;81;21448;-71
2021/05/04 09:17:25;;;;;;;3.80;2.17;;;;;;;10.77;45.68;100203.37;1743607;80;23031;-70
2021/05/04 09:22:45;;;;;;;2.77;2.02;;;;;;;11.12;45.22;100196.47;1879061;75;22642;-70
2021/05/04 09:25:34;;;;;;;3.00;1.82;;;;;;;11.21;43.29;100200.14;1820622;77;21563;-71
2021/05/04 09:28:12;;;;;;;5.58;2.00;;;;;;;11.23;43.60;100211.91;1765426;81;22763;-71
2021/05/04 09:30:40;;;;;;;2.10;1.90;;;;;;;11.21;43.60;100196.18;1767706;79;21076;-71
2021/05/04 09:33:10;;;;;;;2.65;1.50;;;;;;;11.17;42.45;100206.64;1794604;79;21171;-71
2021/05/04 09:35:38;;;;;;;2.85;1.70;;;;;;;11.09;42.65;100195.88;1796704;79;21127;-72
2021/05/04 09:38:11;;;;;;;2.75;1.72;;;;;;;11.00;42.79;100209.86;1787477;79;21128;-71
2021/05/04 09:40:41;;;;;;;2.33;1.55;;;;;;;10.99;42.61;100212.15;1780856;79;22831;-71
2021/05/04 09:43:23;;;;;;;3.02;1.65;;;;;;;11.03;41.96;100195.92;1790719;79;21104;-69
2021/05/04 09:45:56;;;;;;;2.05;1.20;;;;;;;11.16;41.75;100208.94;1765225;81;21171;-72
2021/05/04 09:48:27;;;;;;;2.05;1.57;;;;;;;11.33;42.01;100185.03;1735898;81;22416;-70
2021/05/04 09:51:11;;;;;;;1.85;1.42;;;;;;;11.54;41.67;100185.83;1765203;81;21166;-69
2021/05/04 09:56:35;;;;;;;1.92;1.60;;;;;;;11.60;40.69;100191.09;1791136;79;21064;-70
2021/05/04 09:59:04;;;;;;;2.62;1.52;;;;;;;11.54;41.01;100183.67;1785038;79;21045;-71
2021/05/04 10:01:32;;;;;;;1.70;1.30;;;;;;;11.51;41.01;100195.84;1786686;79;21352;-71
2021/05/04 10:04:01;;;;;;;1.82;1.30;;;;;;;11.44;41.04;100196.36;1796681;79;21065;-71
2021/05/04 10:06:28;;;;;;;2.55;1.50;;;;;;;11.33;40.77;100191.16;1796906;79;23334;-71
2021/05/04 10:08:56;;;;;;;4.22;1.40;;;;;;;11.22;41.83;100209.75;1774341;79;21144;-71
2021/05/04 10:11:23;;;;;;;2.20;1.40;;;;;;;10.97;45.20;100232.59;1772946;79;21492;-71
2021/05/04 10:13:54;;;;;;;2.42;1.30;;;;;;;10.69;46.13;100225.62;1733396;81;21093;-71
2021/05/04 10:16:23;;;;;;;1.65;1.10;;;;;;;10.52;46.47;100216.45;1727965;83;21112;-72
2021/05/04 10:18:51;;;;;;;2.75;1.07;;;;;;;10.46;46.00;100214.79;1737536;81;22971;-71
2021/05/04 10:21:20;;;;;;;2.55;1.45;;;;;;;10.53;46.12;100214.17;1743967;81;21089;-71
2021/05/04 10:23:49;;;;;;;1.57;1.20;;;;;;;10.80;44.67;100199.14;1741165;81;21162;-71
2021/05/04 10:26:17;;;;;;;3.15;1.40;;;;;;;11.14;45.17;100189.73;1783315;79;21575;-70
2021/05/04 10:28:58;;;;;;;1.75;1.30;;;;;;;11.54;43.44;100191.61;1678123;83;21164;-71
2021/05/04 10:31:43;;;;;;;1.57;1.37;;;;;;;11.91;42.81;100197.22;1865541;76;23181;-71
2021/05/04 10:34:31;;;;;;;3.17;1.40;;;;;;;12.11;42.71;100193.65;1812050;78;21164;-71
2021/05/04 10:37:17;;;;;;;2.75;1.40;;;;;;;12.27;42.27;100179.41;1746151;78;22015;-69
2021/05/04 10:39:46;;;;;;;2.62;1.20;;;;;;;12.38;41.95;100174.46;1777133;79;21199;-70
2021/05/04 10:42:36;;;;;;;1.95;1.37;;;;;;;12.46;41.90;100176.42;1807864;77;21200;-71
2021/05/04 10:45:08;;;;;;;2.42;1.20;;;;;;;12.42;41.03;100175.02;1807346;78;22323;-70
2021/05/04 10:47:47;;;;;;;1.87;1.00;;;;;;;12.32;40.88;100171.86;1799849;78;21157;-71
2021/05/04 10:50:24;;;;;;;2.60;1.30;;;;;;;12.28;40.40;100173.62;1767095;79;21611;-71
2021/05/04 10:53:00;;;;;;;2.17;1.20;;;;;;;12.24;40.09;100181.47;1774296;79;21197;-71
2021/05/04 10:55:58;;;;;;;1.70;1.07;;;;;;;12.22;39.84;100174.98;1783717;79;21141;-71
2021/05/04 10:58:27;;;;;;;1.57;1.05;;;;;;;12.33;39.91;100176.19;1787779;79;21192;-72
2021/05/04 11:00:56;;;;;;;2.10;1.37;;;;;;;12.51;37.98;100177.66;1764835;81;21168;-72
2021/05/04 11:03:36;;;;;;;4.90;1.60;;;;;;;12.52;38.15;100171.39;1772913;80;22976;-71
2021/05/04 11:06:06;;;;;;;5.97;1.50;;;;;;;12.45;37.62;100172.08;1791703;79;21189;-71
2021/05/04 11:08:47;;;;;;;2.12;1.30;;;;;;;12.35;38.52;100169.91;1776750;79;21500;-71
2021/05/04 11:11:41;;;;;;;2.62;1.35;;;;;;;12.32;38.85;100155.98;1788966;79;21716;-70
2021/05/04 11:14:19;;;;;;;2.20;1.25;;;;;;;12.21;38.99;100171.16;1777111;79;21203;-71
2021/05/04 11:16:59;;;;;;;2.17;1.72;;;;;;;12.12;38.96;100173.30;1801011;79;21180;-72
2021/05/04 11:19:31;;;;;;;2.87;1.70;;;;;;;12.04;39.97;100177.46;1770273;80;21185;-71
2021/05/04 11:22:07;;;;;;;2.12;1.30;;;;;;;11.92;40.32;100173.75;1778609;80;21161;-71
2021/05/04 11:24:43;;;;;;;2.77;1.70;;;;;;;11.92;41.17;100174.58;1805723;78;21174;-70
2021/05/04 11:27:18;;;;;;;2.80;1.50;;;;;;;12.20;41.29;100170.81;1790993;78;21158;-71
2021/05/04 11:29:48;;;;;;;2.72;1.40;;;;;;;12.67;40.03;100160.39;1803231;77;22060;-70
2021/05/04 11:32:42;;;;;;;2.25;1.45;;;;;;;13.14;38.38;100159.97;1810134;78;21647;-73
2021/05/04 11:35:10;;;;;;;4.05;1.30;;;;;;;13.52;38.34;100156.88;1809043;78;21172;-71
2021/05/04 11:37:44;;;;;;;4.22;1.20;;;;;;;13.96;37.99;100148.11;1798150;78;21204;-71
2021/05/04 11:40:23;;;;;;;1.27;1.00;;;;;;;14.14;35.26;100145.48;1800934;79;21179;-69
2021/05/04 11:42:57;;;;;;;1.57;0.93;;;;;;;14.05;35.25;100146.39;1775063;79;22987;-70
2021/05/04 11:45:33;;;;;;;2.40;1.22;;;;;;;14.09;35.09;100150.44;1809739;78;21177;-70